Time;durP1;ratioP1;P1;durP2;ratioP2;P2;SDS_P1;SDS_P2;PMS_P1;PMS_P2;Temp;Humidity;BMP_temperature;BMP_pressure;BME280_temperature;BME280_humidity;BME280_pressure;Samples;Min_cycle;Max_cycle;Signal;HPM_P1;HPM_P2
2022/08/20 00:02:22;;;;;;;2.80;2.60;;;25.40;67.70;26.50;100708.00;;;;5025903;28;20203;-49
2022/08/20 00:04:47;;;;;;;2.63;2.40;;;25.50;67.60;26.50;100710.00;;;;5026063;28;20170;-47
2022/08/20 00:07:13;;;;;;;3.47;2.70;;;25.50;67.50;26.50;100705.00;;;;5025818;28;20187;-44
2022/08/20 00:09:40;;;;;;;3.55;2.75;;;25.50;67.20;26.50;100705.00;;;;5025578;28;20167;-48
2022/08/20 00:12:06;;;;;;;2.40;2.28;;;25.50;67.00;26.50;100706.00;;;;5041222;28;20220;-48
2022/08/20 00:14:33;;;;;;;4.10;2.40;;;25.50;67.00;26.50;100694.00;;;;5040989;28;20167;-48
2022/08/20 00:16:58;;;;;;;3.05;2.40;;;25.50;67.00;26.50;100699.00;;;;5025551;28;20258;-48
2022/08/20 00:19:24;;;;;;;4.43;3.00;;;25.50;67.00;26.50;100705.00;;;;5025732;28;20254;-48
2022/08/20 00:21:50;;;;;;;3.10;2.80;;;25.40;67.40;26.40;100704.00;;;;5025623;28;20237;-48
2022/08/20 00:24:16;;;;;;;3.00;2.70;;;25.40;67.70;26.40;100706.00;;;;5025512;28;20189;-49
2022/08/20 00:26:41;;;;;;;4.53;2.80;;;25.30;67.90;26.40;100701.00;;;;5025717;28;20178;-48
2022/08/20 00:29:07;;;;;;;4.28;3.30;;;25.30;68.00;26.30;100703.00;;;;5025519;28;20245;-48
2022/08/20 00:31:33;;;;;;;4.15;3.25;;;25.30;67.90;26.30;100712.00;;;;5025782;28;20263;-48
2022/08/20 00:33:59;;;;;;;3.88;3.10;;;25.30;68.20;26.30;100713.00;;;;5025948;28;20175;-48
2022/08/20 00:36:25;;;;;;;4.25;3.17;;;25.30;68.40;26.30;100704.00;;;;5025602;28;20191;-47
2022/08/20 00:38:51;;;;;;;3.30;3.00;;;25.30;68.80;26.30;100704.00;;;;5025484;28;20237;-48
2022/08/20 00:41:23;;;;;;;3.13;2.83;;;25.30;68.80;26.30;100702.00;;;;5025809;28;20316;-49
2022/08/20 00:43:50;;;;;;;6.80;3.17;;;25.30;69.00;26.30;100702.00;;;;5025876;28;20167;-48
2022/08/20 00:46:22;;;;;;;5.88;3.45;;;25.30;68.80;26.30;100706.00;;;;5040897;28;20290;-48
2022/08/20 00:48:51;;;;;;;5.40;3.60;;;25.40;69.20;26.30;100713.00;;;;5025517;28;20762;-47
2022/08/20 00:51:59;;;;;;;4.28;3.38;;;25.40;69.40;26.30;100707.00;;;;5025298;28;20210;-49
2022/08/20 00:54:45;;;;;;;4.20;3.72;;;25.40;69.60;26.30;100708.00;;;;5039910;28;20185;-50
2022/08/20 00:57:41;;;;;;;4.20;3.80;;;25.30;69.50;26.30;100703.00;;;;5052055;28;20187;-47
2022/08/20 01:00:13;;;;;;;4.60;3.72;;;25.30;69.90;26.20;100704.00;;;;5029748;28;20174;-49
2022/08/20 01:02:41;;;;;;;4.40;3.97;;;25.30;70.30;26.20;100708.00;;;;5029714;28;20202;-49
2022/08/20 01:05:08;;;;;;;4.40;3.55;;;25.30;70.20;26.20;100711.00;;;;5034680;28;20551;-48
2022/08/20 01:07:34;;;;;;;4.40;3.80;;;25.30;70.20;26.20;100711.00;;;;5030185;28;20270;-46
2022/08/20 01:10:05;;;;;;;4.20;3.80;;;25.30;70.00;26.20;100712.00;;;;5029131;28;20167;-48
2022/08/20 01:12:31;;;;;;;4.43;4.03;;;25.30;70.10;26.20;100715.00;;;;5044395;28;20641;-49
2022/08/20 01:14:58;;;;;;;4.35;3.78;;;25.30;70.40;26.20;100712.00;;;;5044285;28;20721;-49
2022/08/20 01:17:26;;;;;;;4.75;4.28;;;25.30;70.40;26.20;100701.00;;;;5043816;28;20246;-47
2022/08/20 01:19:57;;;;;;;3.78;3.47;;;25.30;70.70;26.20;100698.00;;;;5044053;28;20183;-47
2022/08/20 01:25:59;;;;;;;3.63;3.28;;;25.30;70.40;26.20;100697.00;;;;5038612;28;20217;-49
2022/08/20 01:28:44;;;;;;;3.50;3.20;;;25.30;69.90;26.20;100692.00;;;;5043769;28;20813;-45
2022/08/20 01:31:13;;;;;;;3.90;3.50;;;25.30;70.30;26.20;100702.00;;;;5044176;28;20167;-49
2022/08/20 01:33:39;;;;;;;3.55;3.25;;;25.40;69.80;26.20;100695.00;;;;5028958;28;20266;-47
2022/08/20 01:36:06;;;;;;;4.35;3.95;;;25.30;69.60;26.20;100688.00;;;;5044098;28;20174;-47
2022/08/20 01:38:31;;;;;;;3.72;3.33;;;25.40;69.80;26.20;100690.00;;;;5028579;28;20222;-49
2022/08/20 01:41:14;;;;;;;3.60;3.30;;;25.40;69.60;26.20;100696.00;;;;5028371;28;20240;-48
2022/08/20 01:43:40;;;;;;;3.60;3.30;;;25.40;69.60;26.20;100697.00;;;;5043079;28;20876;-47
2022/08/20 01:46:08;;;;;;;3.42;3.13;;;25.40;69.50;26.20;100702.00;;;;5028290;28;20210;-47
2022/08/20 01:48:36;;;;;;;3.47;3.17;;;25.40;69.40;26.20;100705.00;;;;5028002;28;20183;-47
2022/08/20 01:51:17;;;;;;;4.38;3.42;;;25.40;68.90;26.30;100711.00;;;;5027811;28;20175;-47
2022/08/20 01:53:48;;;;;;;3.45;3.08;;;25.40;68.90;26.30;100703.00;;;;5028243;28;20171;-46
2022/08/20 01:56:18;;;;;;;3.47;3.17;;;25.40;68.80;26.30;100732.00;;;;5028451;28;20155;-48
2022/08/20 01:58:51;;;;;;;4.15;3.30;;;25.40;68.90;26.30;100718.00;;;;5027885;28;20196;-47
2022/08/20 02:01:39;;;;;;;3.25;2.95;;;25.40;68.60;26.30;100726.00;;;;5028322;28;20186;-47
2022/08/20 02:04:07;;;;;;;3.28;2.90;;;25.50;68.60;26.30;100718.00;;;;5028506;28;20159;-47
2022/08/20 02:06:37;;;;;;;2.97;2.60;;;25.40;68.20;26.30;100714.00;;;;5027125;28;20582;-46
2022/08/20 02:09:03;;;;;;;3.72;2.67;;;25.40;67.80;26.30;100713.00;;;;5027567;28;20191;-47
2022/08/20 02:11:29;;;;;;;3.22;2.80;;;25.40;68.10;26.30;100704.00;;;;5027743;28;20167;-46
2022/08/20 02:13:56;;;;;;;3.05;2.75;;;25.40;67.80;26.30;100715.00;;;;5045635;28;20237;-46
2022/08/20 02:16:27;;;;;;;3.60;2.90;;;25.40;67.80;26.30;100724.00;;;;5050871;28;20206;-49
2022/08/20 02:18:56;;;;;;;3.20;2.90;;;25.40;67.80;26.30;100729.00;;;;5030155;28;20267;-47
2022/08/20 02:21:22;;;;;;;3.17;2.88;;;25.50;67.50;26.30;100726.00;;;;5042547;28;20444;-48
2022/08/20 02:23:48;;;;;;;3.40;2.88;;;25.50;67.70;26.30;100720.00;;;;5027574;28;20246;-48
2022/08/20 02:26:17;;;;;;;3.50;3.20;;;25.50;67.70;26.30;100718.00;;;;5043035;28;20549;-47
2022/08/20 02:28:48;;;;;;;3.28;2.97;;;25.50;67.90;26.30;100725.00;;;;5027434;28;20191;-48
2022/08/20 02:31:15;;;;;;;3.25;2.90;;;25.50;67.90;26.30;100733.00;;;;5027384;28;20583;-47
2022/08/20 02:33:41;;;;;;;3.20;2.90;;;25.40;67.80;26.30;100715.00;;;;5027604;28;20205;-47
2022/08/20 02:36:07;;;;;;;3.13;2.83;;;25.40;67.70;26.30;100713.00;;;;5027471;28;20175;-48
2022/08/20 02:38:33;;;;;;;3.03;2.70;;;25.40;67.40;26.30;100718.00;;;;5027084;28;20195;-47
2022/08/20 02:41:00;;;;;;;3.08;2.70;;;25.40;67.50;26.20;100716.00;;;;5027344;28;20225;-48
2022/08/20 02:43:26;;;;;;;3.40;3.10;;;25.50;67.50;26.30;100710.00;;;;5027781;28;20278;-49
2022/08/20 02:45:52;;;;;;;3.35;3.00;;;25.40;67.30;26.20;100706.00;;;;5027098;28;20270;-47
2022/08/20 02:48:19;;;;;;;3.05;2.65;;;25.50;67.20;26.20;100712.00;;;;5026909;28;20199;-50
2022/08/20 02:50:52;;;;;;;2.83;2.53;;;25.50;67.50;26.30;100719.00;;;;5026743;28;20167;-46
2022/08/20 02:53:18;;;;;;;4.72;4.15;;;25.50;67.40;26.20;100711.00;;;;5027202;28;20645;-47
2022/08/20 02:55:44;;;;;;;4.72;4.28;;;25.50;67.80;26.30;100717.00;;;;5026970;28;20175;-46
2022/08/20 02:58:10;;;;;;;5.70;4.05;;;25.50;68.20;26.20;100721.00;;;;5026788;28;20254;-49
2022/08/20 03:00:36;;;;;;;5.00;4.60;;;25.40;68.30;26.20;100730.00;;;;5030992;28;20175;-47
2022/08/20 03:03:02;;;;;;;4.70;4.32;;;25.40;69.10;26.20;100714.00;;;;5029592;28;20190;-49
2022/08/20 03:05:28;;;;;;;5.28;4.78;;;25.30;69.20;26.20;100721.00;;;;5026368;28;20739;-46
2022/08/20 03:07:55;;;;;;;5.25;4.50;;;25.30;69.50;26.20;100724.00;;;;5026389;28;20222;-48
2022/08/20 03:10:26;;;;;;;4.40;3.97;;;25.30;69.50;26.20;100727.00;;;;5026372;28;20159;-48
2022/08/20 03:12:52;;;;;;;4.30;3.80;;;25.30;69.40;26.10;100712.00;;;;5026302;28;20266;-49
2022/08/20 03:15:19;;;;;;;6.53;4.95;;;25.30;68.80;26.10;100718.00;;;;5026082;28;20246;-48
2022/08/20 03:17:44;;;;;;;4.40;4.00;;;25.30;69.50;26.10;100714.00;;;;5025766;28;20221;-50
2022/08/20 03:20:11;;;;;;;4.43;3.60;;;25.30;68.80;26.10;100708.00;;;;5025969;28;20178;-46
2022/08/20 03:22:37;;;;;;;4.47;4.00;;;25.30;68.20;26.10;100713.00;;;;5026061;28;20633;-49
2022/08/20 03:25:03;;;;;;;4.18;3.78;;;25.40;68.10;26.10;100708.00;;;;5026216;28;20171;-47
2022/08/20 03:27:29;;;;;;;3.90;3.60;;;25.40;68.00;26.10;100707.00;;;;5025704;28;20268;-48
2022/08/20 03:29:55;;;;;;;3.95;3.40;;;25.40;67.80;26.10;100705.00;;;;5026186;28;20258;-50
2022/08/20 03:32:21;;;;;;;3.58;3.25;;;25.40;67.30;26.10;100703.00;;;;5026589;28;20687;-48
2022/08/20 03:34:47;;;;;;;4.90;3.45;;;25.40;66.90;26.10;100696.00;;;;5033633;28;20186;-49
2022/08/20 03:37:13;;;;;;;5.30;3.85;;;25.40;66.90;26.10;100709.00;;;;5029148;28;20199;-48
2022/08/20 03:39:38;;;;;;;5.72;5.00;;;25.40;67.50;26.10;100704.00;;;;5026234;28;20686;-49
2022/08/20 03:42:04;;;;;;;5.10;4.60;;;25.30;68.50;26.10;100705.00;;;;5025812;28;20274;-48
2022/08/20 03:44:30;;;;;;;4.90;4.50;;;25.20;69.40;26.10;100698.00;;;;5025852;28;20163;-48
2022/08/20 03:46:56;;;;;;;4.68;4.18;;;25.20;69.40;26.00;100693.00;;;;5025460;28;20636;-49
2022/08/20 03:49:23;;;;;;;4.45;4.05;;;25.30;68.80;26.00;100693.00;;;;5041187;28;20197;-51
2022/08/20 03:51:49;;;;;;;6.50;5.80;;;25.20;68.80;26.00;100701.00;;;;5025676;28;20179;-49
2022/08/20 03:54:15;;;;;;;4.35;3.95;;;25.30;68.30;26.00;100698.00;;;;5025515;28;20167;-47
2022/08/20 03:56:41;;;;;;;4.93;4.28;;;25.30;67.90;26.00;100701.00;;;;5025444;28;20235;-48
2022/08/20 03:59:07;;;;;;;3.83;3.45;;;25.30;67.70;26.00;100690.00;;;;5025353;28;20216;-48
2022/08/20 04:01:32;;;;;;;4.00;3.47;;;25.30;67.50;26.00;100683.00;;;;5025794;28;20301;-46
2022/08/20 04:03:58;;;;;;;4.15;3.75;;;25.20;67.60;26.00;100685.00;;;;5025737;28;20631;-49
2022/08/20 04:06:25;;;;;;;3.78;3.47;;;25.30;67.80;26.00;100685.00;;;;5026079;28;20422;-48
2022/08/20 04:08:52;;;;;;;5.20;3.45;;;25.20;67.70;26.00;100688.00;;;;5041309;28;20179;-49
2022/08/20 04:11:18;;;;;;;3.78;3.47;;;25.30;67.50;26.00;100704.00;;;;5026034;28;20175;-48
2022/08/20 04:13:44;;;;;;;5.88;3.38;;;25.30;67.40;26.00;100696.00;;;;5025881;28;20250;-49
2022/08/20 04:16:10;;;;;;;4.10;3.70;;;25.20;67.00;26.00;100702.00;;;;5041262;28;20198;-48
2022/08/20 04:18:35;;;;;;;4.32;3.92;;;25.20;68.40;26.00;100703.00;;;;5025525;28;20832;-47
2022/08/20 04:21:02;;;;;;;4.53;4.03;;;25.20;68.50;25.90;100717.00;;;;5041535;28;20701;-47
2022/08/20 04:23:28;;;;;;;4.82;4.43;;;25.10;68.60;25.90;100716.00;;;;5025761;28;20491;-46
2022/08/20 04:25:55;;;;;;;5.60;4.40;;;25.10;68.40;25.90;100717.00;;;;5026130;28;20163;-48
2022/08/20 04:28:26;;;;;;;5.57;4.15;;;25.00;68.80;25.90;100710.00;;;;5024300;28;20190;-47
2022/08/20 04:30:56;;;;;;;4.43;4.03;;;25.00;69.00;25.90;100719.00;;;;5031736;28;20455;-48
2022/08/20 04:33:23;;;;;;;3.90;3.60;;;25.00;69.20;25.80;100726.00;;;;5031863;28;20151;-47
2022/08/20 04:35:49;;;;;;;3.90;3.50;;;25.00;68.90;25.80;100724.00;;;;5032145;28;20197;-48
2022/08/20 04:38:17;;;;;;;3.42;3.13;;;25.00;68.40;25.80;100733.00;;;;5030157;28;20724;-49
2022/08/20 04:40:52;;;;;;;3.60;3.30;;;25.00;67.50;25.80;100734.00;;;;5032130;28;20178;-45
2022/08/20 04:43:22;;;;;;;4.40;3.63;;;25.10;67.50;25.80;100731.00;;;;5031767;28;20206;-47
2022/08/20 04:45:48;;;;;;;4.50;4.00;;;25.10;68.20;25.80;100735.00;;;;5032178;28;20197;-48
2022/08/20 04:48:14;;;;;;;4.78;4.18;;;25.10;68.40;25.80;100736.00;;;;5030246;28;20190;-48
2022/08/20 04:50:41;;;;;;;4.95;4.53;;;25.00;69.30;25.80;100742.00;;;;5031863;28;20610;-48
2022/08/20 04:53:09;;;;;;;4.72;3.55;;;25.00;69.70;25.80;100742.00;;;;5046862;28;20167;-48
2022/08/20 04:55:38;;;;;;;6.82;4.07;;;25.00;68.40;25.80;100748.00;;;;5037092;28;20170;-49
2022/08/20 04:58:10;;;;;;;4.25;3.85;;;25.00;68.80;25.70;100748.00;;;;5033011;28;20733;-49
2022/08/20 05:00:36;;;;;;;4.90;4.20;;;25.00;68.80;25.80;100742.00;;;;5032270;28;20724;-47
2022/08/20 05:03:01;;;;;;;3.80;3.40;;;24.90;69.20;25.70;100739.00;;;;5031251;28;20198;-50
2022/08/20 05:05:27;;;;;;;4.53;3.20;;;24.90;69.20;25.70;100749.00;;;;5031535;28;20198;-49
2022/08/20 05:07:53;;;;;;;5.65;3.70;;;24.90;69.20;25.70;100745.00;;;;5031849;28;20594;-47
2022/08/20 05:10:20;;;;;;;4.60;3.88;;;24.90;68.70;25.70;100751.00;;;;5031710;28;20159;-48
2022/08/20 05:12:46;;;;;;;5.22;4.45;;;24.90;68.60;25.70;100745.00;;;;5031506;28;20206;-48
2022/08/20 05:15:12;;;;;;;4.63;4.15;;;24.90;70.00;25.70;100754.00;;;;5031258;28;20258;-43
2022/08/20 05:17:41;;;;;;;5.30;4.15;;;24.80;70.20;25.50;100753.00;;;;5033270;28;20183;-42
2022/08/20 05:20:09;;;;;;;4.68;4.20;;;23.90;73.70;25.30;100756.00;;;;5033056;28;20170;-43
2022/08/20 05:22:35;;;;;;;5.28;3.70;;;23.90;74.10;25.20;100757.00;;;;5031543;28;20237;-44
2022/08/20 05:25:01;;;;;;;5.35;4.85;;;24.00;73.60;25.10;100753.00;;;;5031569;28;20163;-43
2022/08/20 05:27:27;;;;;;;5.30;3.70;;;23.40;76.30;25.10;100754.00;;;;5031557;28;20203;-43
2022/08/20 05:29:59;;;;;;;5.72;3.53;;;23.70;74.60;25.10;100753.00;;;;5031528;28;20190;-43
2022/08/20 05:32:24;;;;;;;4.33;3.60;;;24.00;73.60;25.00;100753.00;;;;5031517;28;20678;-44
2022/08/20 05:34:50;;;;;;;4.03;3.40;;;23.80;74.50;25.00;100751.00;;;;5031491;28;20175;-44
2022/08/20 05:37:16;;;;;;;4.30;3.40;;;23.80;73.50;25.00;100749.00;;;;5031332;28;20222;-44
2022/08/20 05:39:43;;;;;;;6.27;5.67;;;23.80;73.80;25.00;100750.00;;;;5030652;28;20236;-44
2022/08/20 05:42:10;;;;;;;5.90;5.30;;;23.70;75.60;24.90;100744.00;;;;5028524;28;20233;-44
2022/08/20 05:44:36;;;;;;;4.93;4.53;;;23.80;74.50;24.80;100744.00;;;;5028345;28;20159;-43
2022/08/20 05:47:03;;;;;;;5.60;4.57;;;23.40;75.90;24.70;100746.00;;;;5028083;28;20632;-43
2022/08/20 05:49:29;;;;;;;7.43;6.77;;;23.60;75.30;24.70;100764.00;;;;5043596;28;20168;-42
2022/08/20 05:51:54;;;;;;;8.43;7.67;;;23.30;77.10;24.50;100752.00;;;;5026517;28;20182;-45
2022/08/20 05:54:21;;;;;;;8.27;7.47;;;22.80;80.00;24.10;100761.00;;;;5027996;28;20286;-44
2022/08/20 05:56:46;;;;;;;9.73;8.83;;;22.70;80.60;24.10;100762.00;;;;5028155;28;20317;-45
2022/08/20 05:59:12;;;;;;;10.07;9.17;;;22.40;81.90;24.00;100755.00;;;;5028209;28;20788;-43
2022/08/20 06:01:39;;;;;;;10.13;9.17;;;22.30;82.20;23.90;100762.00;;;;5028178;28;20159;-44
2022/08/20 06:04:23;;;;;;;11.40;10.30;;;22.40;81.50;23.80;100768.00;;;;5028030;28;20206;-44
2022/08/20 06:06:51;;;;;;;10.83;9.73;;;22.30;82.30;23.60;100765.00;;;;5028180;28;20185;-44
2022/08/20 06:09:19;;;;;;;10.87;9.97;;;22.00;83.80;23.40;100771.00;;;;5027424;28;20261;-43
2022/08/20 06:11:45;;;;;;;10.87;9.93;;;21.70;85.50;23.30;100770.00;;;;5027363;28;20642;-44
2022/08/20 06:14:11;;;;;;;11.53;10.53;;;21.70;85.40;23.30;100774.00;;;;5026966;28;20201;-42
2022/08/20 06:16:36;;;;;;;11.53;10.33;;;21.90;84.90;23.20;100784.00;;;;5026979;28;20182;-42
2022/08/20 06:19:02;;;;;;;10.83;9.90;;;21.70;86.40;23.10;100771.00;;;;5026872;28;20195;-42
2022/08/20 06:21:28;;;;;;;12.03;10.83;;;21.70;86.40;23.10;100770.00;;;;5026497;28;20179;-43
2022/08/20 06:23:54;;;;;;;12.03;10.83;;;21.70;86.40;23.00;100763.00;;;;5027492;28;20186;-43
2022/08/20 06:26:19;;;;;;;14.30;11.00;;;21.60;87.40;22.90;100771.00;;;;5027637;28;20201;-43
2022/08/20 06:28:45;;;;;;;11.40;10.40;;;21.50;88.20;22.90;100780.00;;;;5026741;28;20572;-44
2022/08/20 06:31:11;;;;;;;11.47;10.53;;;21.50;88.50;22.90;100784.00;;;;5026510;28;20254;-43
2022/08/20 06:33:37;;;;;;;12.77;11.67;;;21.60;88.10;22.50;100789.00;;;;5027227;28;20543;-42
2022/08/20 06:36:03;;;;;;;12.90;11.73;;;21.30;90.00;22.60;100787.00;;;;5026736;28;20830;-42
2022/08/20 06:38:31;;;;;;;14.20;12.77;;;21.30;90.30;22.60;100787.00;;;;5025476;28;20195;-41
2022/08/20 06:40:58;;;;;;;12.93;11.77;;;21.40;90.20;22.60;100739.00;;;;5027171;28;20279;-44
2022/08/20 06:43:24;;;;;;;11.40;10.33;;;21.30;90.60;22.50;100795.00;;;;5029281;28;20190;-42
2022/08/20 06:45:50;;;;;;;11.63;10.60;;;21.50;89.80;22.60;100792.00;;;;5028270;28;20513;-43
2022/08/20 06:48:16;;;;;;;12.30;11.07;;;21.60;89.40;22.70;100789.00;;;;5026885;28;20191;-42
2022/08/20 06:50:44;;;;;;;10.33;9.33;;;21.60;89.40;22.80;100783.00;;;;5027138;28;20213;-42
2022/08/20 06:53:11;;;;;;;8.87;8.00;;;21.80;87.80;22.80;100788.00;;;;5026231;28;20810;-42
2022/08/20 06:55:40;;;;;;;14.00;12.70;;;21.90;86.80;22.90;100792.00;;;;5027415;28;20171;-42
2022/08/20 06:58:08;;;;;;;9.50;8.70;;;22.00;87.20;22.90;100797.00;;;;5042155;28;20206;-41
2022/08/20 07:00:35;;;;;;;14.80;13.40;;;21.80;87.00;22.90;100799.00;;;;5027215;28;20221;-43
2022/08/20 07:03:01;;;;;;;14.50;13.13;;;21.90;86.50;23.00;100792.00;;;;5030576;28;20217;-45
2022/08/20 07:05:28;;;;;;;15.93;14.43;;;22.10;84.70;23.10;100800.00;;;;5044466;28;20185;-43
2022/08/20 07:07:53;;;;;;;12.40;11.30;;;22.20;85.70;23.10;100801.00;;;;5026802;28;20197;-43
2022/08/20 07:10:19;;;;;;;18.47;16.67;;;22.10;85.60;23.10;100797.00;;;;5027181;28;20167;-44
2022/08/20 07:12:46;;;;;;;15.20;13.70;;;21.90;87.20;23.00;100805.00;;;;5026786;28;20168;-44
2022/08/20 07:15:12;;;;;;;15.97;14.43;;;21.80;86.60;23.00;100804.00;;;;5026547;28;20198;-44
2022/08/20 07:17:39;;;;;;;15.60;14.00;;;21.80;87.50;23.00;100814.00;;;;5026907;28;20190;-43
2022/08/20 07:20:07;;;;;;;18.33;16.50;;;21.70;86.90;22.70;100829.00;;;;5002078;28;20170;-45
2022/08/20 07:22:36;;;;;;;16.93;15.43;;;21.60;87.90;22.80;100815.00;;;;4953374;28;20227;-43
2022/08/20 07:25:06;;;;;;;17.50;15.80;;;21.50;88.20;22.70;100815.00;;;;5008312;28;20152;-44
2022/08/20 07:27:32;;;;;;;18.37;14.53;;;21.30;88.10;22.70;100812.00;;;;5022616;28;20281;-43
2022/08/20 07:32:42;;;;;;;18.90;16.30;;;21.40;87.60;22.60;100807.00;;;;5005975;28;20166;-42
2022/08/20 07:35:11;;;;;;;16.27;14.57;;;21.30;87.80;22.50;100811.00;;;;5021893;28;20162;-42
2022/08/20 07:37:45;;;;;;;15.30;13.90;;;21.20;88.20;22.40;100816.00;;;;5025483;28;20195;-42
2022/08/20 07:40:15;;;;;;;15.00;13.63;;;21.20;88.90;22.50;100816.00;;;;5025764;28;20151;-43
2022/08/20 07:42:41;;;;;;;15.10;13.50;;;21.30;88.00;22.40;100822.00;;;;5025511;28;20252;-42
2022/08/20 07:45:09;;;;;;;15.07;13.60;;;21.20;88.10;22.40;100819.00;;;;5025639;28;20179;-43
2022/08/20 07:47:38;;;;;;;15.97;14.47;;;21.30;88.20;22.50;100834.00;;;;5006044;28;20900;-43
2022/08/20 07:50:05;;;;;;;15.33;13.73;;;21.30;88.10;22.40;100825.00;;;;5006179;28;20579;-42
2022/08/20 07:52:33;;;;;;;15.37;13.97;;;21.30;88.50;22.40;100834.00;;;;5020060;28;20858;-42
2022/08/20 07:55:04;;;;;;;15.23;13.90;;;21.40;88.00;22.40;100838.00;;;;5022037;28;20220;-42
2022/08/20 07:57:30;;;;;;;15.73;13.87;;;21.30;88.20;22.40;100833.00;;;;5021464;28;20203;-44
2022/08/20 07:59:57;;;;;;;13.90;12.60;;;21.30;89.00;22.40;100832.00;;;;5006133;28;20176;-44
2022/08/20 08:02:25;;;;;;;14.90;13.53;;;21.30;88.10;22.40;100836.00;;;;5026864;28;20237;-45
2022/08/20 08:04:50;;;;;;;15.77;13.37;;;21.30;87.20;22.40;100848.00;;;;5008780;28;20175;-44
2022/08/20 08:07:16;;;;;;;15.77;13.70;;;21.20;87.80;22.40;100851.00;;;;5005852;28;20192;-44
2022/08/20 08:09:43;;;;;;;14.37;12.83;;;21.10;87.50;22.30;100839.00;;;;5021306;28;20186;-44
2022/08/20 08:12:11;;;;;;;14.87;13.40;;;21.10;88.40;22.30;100852.00;;;;5020349;28;20179;-41
2022/08/20 08:14:38;;;;;;;13.83;12.53;;;21.10;88.10;22.30;100853.00;;;;5019812;28;20160;-43
2022/08/20 08:17:04;;;;;;;14.63;12.40;;;21.20;87.60;22.30;100850.00;;;;5020043;28;20811;-42
2022/08/20 08:19:37;;;;;;;14.50;13.07;;;21.30;86.90;22.30;100852.00;;;;5021045;28;20175;-42
2022/08/20 08:22:04;;;;;;;15.10;13.77;;;21.20;87.40;22.30;100850.00;;;;4959078;28;20218;-43
2022/08/20 08:24:30;;;;;;;14.00;12.73;;;21.20;87.00;22.30;100860.00;;;;5033712;28;20179;-43
2022/08/20 08:26:56;;;;;;;14.67;11.47;;;21.10;88.00;22.30;100857.00;;;;5006316;28;20203;-43
2022/08/20 08:29:22;;;;;;;14.07;12.43;;;21.20;87.40;22.20;100867.00;;;;5005962;28;20180;-44
2022/08/20 08:31:47;;;;;;;14.17;11.73;;;21.10;86.20;22.20;100861.00;;;;5005351;28;20178;-43
2022/08/20 08:34:13;;;;;;;12.57;11.37;;;21.00;86.20;22.20;100864.00;;;;5004368;28;20178;-43
2022/08/20 08:36:39;;;;;;;14.40;12.47;;;21.00;86.00;22.10;100868.00;;;;5005417;28;20167;-44
2022/08/20 08:39:05;;;;;;;13.93;11.87;;;21.00;86.10;22.20;100855.00;;;;5004951;28;20231;-44
2022/08/20 08:41:36;;;;;;;14.90;9.83;;;21.10;85.80;22.20;100855.00;;;;5020881;28;20198;-44
2022/08/20 08:44:22;;;;;;;13.87;10.93;;;21.40;84.90;22.30;100862.00;;;;5003889;28;20645;-42
2022/08/20 08:46:59;;;;;;;13.17;11.47;;;21.20;85.00;22.30;100872.00;;;;5019167;28;20183;-44
2022/08/20 08:49:31;;;;;;;13.23;10.07;;;21.40;84.40;22.30;100877.00;;;;5019212;28;20183;-44
2022/08/20 08:52:03;;;;;;;14.60;13.20;;;21.30;85.00;22.30;100878.00;;;;5019370;28;20171;-44
2022/08/20 08:54:30;;;;;;;14.43;12.93;;;21.20;85.50;22.30;100885.00;;;;5019587;28;20187;-43
2022/08/20 08:56:55;;;;;;;14.00;12.60;;;21.10;86.40;22.20;100877.00;;;;5019167;28;20346;-43
2022/08/20 08:59:22;;;;;;;14.03;12.07;;;21.00;85.90;22.30;100891.00;;;;5025055;28;20221;-44
2022/08/20 09:01:54;;;;;;;14.33;12.53;;;21.30;85.00;22.30;100882.00;;;;5025081;28;20214;-43
2022/08/20 09:04:20;;;;;;;14.07;12.63;;;21.30;84.90;22.30;100891.00;;;;5045144;28;20152;-43
2022/08/20 09:06:47;;;;;;;16.20;14.57;;;21.30;84.10;22.30;100904.00;;;;5040890;28;20213;-43
2022/08/20 09:09:30;;;;;;;16.60;14.70;;;21.00;84.40;22.10;100910.00;;;;5024848;28;20187;-43
2022/08/20 09:12:03;;;;;;;16.27;14.67;;;20.80;85.60;22.10;100905.00;;;;5039529;28;20154;-43
2022/08/20 09:14:29;;;;;;;15.03;13.67;;;20.80;85.00;22.10;100903.00;;;;5040208;28;20219;-43
2022/08/20 09:16:54;;;;;;;14.50;12.80;;;20.90;84.60;22.10;100902.00;;;;5028181;28;20484;-43
2022/08/20 09:19:20;;;;;;;15.13;13.57;;;20.90;84.30;22.00;100907.00;;;;5028618;28;20197;-43
2022/08/20 09:21:46;;;;;;;17.40;13.87;;;20.80;84.30;22.00;100912.00;;;;5028833;28;20178;-44
2022/08/20 09:24:12;;;;;;;14.40;13.00;;;20.80;84.20;22.00;100911.00;;;;5027983;28;20229;-42
2022/08/20 09:26:37;;;;;;;14.70;13.17;;;20.90;84.10;22.00;100917.00;;;;5028542;28;20197;-44
2022/08/20 09:29:03;;;;;;;15.43;12.80;;;20.90;84.30;22.00;100921.00;;;;5028309;28;20230;-44
2022/08/20 09:31:29;;;;;;;14.63;12.93;;;20.90;84.10;22.00;100919.00;;;;5028217;28;20251;-44
2022/08/20 09:33:54;;;;;;;15.67;14.03;;;20.80;84.30;22.00;100911.00;;;;5028105;28;20210;-44
2022/08/20 09:36:20;;;;;;;15.03;13.20;;;20.90;83.90;22.00;100922.00;;;;5029059;28;20206;-44
2022/08/20 09:38:46;;;;;;;13.73;12.23;;;20.90;83.70;21.90;100921.00;;;;5028971;28;20201;-43
2022/08/20 09:41:12;;;;;;;13.97;11.90;;;20.80;83.90;21.90;100897.00;;;;5028587;28;20225;-44
2022/08/20 09:43:37;;;;;;;14.63;11.87;;;20.80;83.40;21.90;100921.00;;;;5027766;28;20234;-44
2022/08/20 09:46:03;;;;;;;13.97;12.37;;;20.70;83.40;21.90;100911.00;;;;5027870;28;20191;-43
2022/08/20 09:48:29;;;;;;;13.63;11.20;;;20.70;83.80;22.00;100922.00;;;;5028000;28;20209;-43
2022/08/20 09:50:55;;;;;;;12.27;10.13;;;20.90;83.20;22.00;100923.00;;;;5028077;28;20202;-44
2022/08/20 09:53:20;;;;;;;13.53;10.83;;;20.90;82.70;22.00;100921.00;;;;5027299;28;20798;-44
2022/08/20 09:55:50;;;;;;;13.23;11.83;;;21.10;82.30;22.10;100912.00;;;;5027941;28;20190;-44
2022/08/20 09:58:41;;;;;;;12.70;10.57;;;21.00;82.50;22.10;100915.00;;;;5043171;28;20198;-43
2022/08/20 10:01:13;;;;;;;13.90;11.10;;;21.00;82.80;22.10;100918.00;;;;5027961;28;20652;-44
2022/08/20 10:03:40;;;;;;;12.70;10.57;;;21.00;82.30;22.10;100918.00;;;;5027137;28;20206;-43
2022/08/20 10:06:06;;;;;;;14.37;11.47;;;21.10;82.10;22.10;100915.00;;;;5027441;28;20880;-44
2022/08/20 10:08:32;;;;;;;14.90;11.50;;;21.10;81.70;22.20;100916.00;;;;5027529;28;20198;-42
2022/08/20 10:10:58;;;;;;;15.37;11.93;;;21.20;80.50;22.10;100918.00;;;;5027450;28;20171;-43
2022/08/20 10:13:23;;;;;;;14.20;12.03;;;21.10;81.10;22.10;100918.00;;;;5027360;28;20203;-44
2022/08/20 10:15:49;;;;;;;11.67;9.33;;;21.00;81.90;22.10;100920.00;;;;5027448;28;20250;-43
2022/08/20 10:18:15;;;;;;;12.23;10.37;;;21.00;82.10;22.10;100920.00;;;;5027224;28;20199;-43
2022/08/20 10:20:41;;;;;;;15.87;11.97;;;21.20;81.70;22.20;100923.00;;;;5027457;28;20324;-43
2022/08/20 10:23:06;;;;;;;12.47;11.17;;;21.10;81.10;22.20;100923.00;;;;5027255;28;20211;-43
2022/08/20 10:25:32;;;;;;;11.30;9.87;;;21.10;81.10;22.20;100925.00;;;;5026892;28;20210;-44
2022/08/20 10:27:58;;;;;;;13.13;11.30;;;21.20;81.50;22.20;100923.00;;;;5026429;28;20197;-42
2022/08/20 10:30:24;;;;;;;14.53;11.60;;;21.20;80.80;22.20;100915.00;;;;5027869;28;20179;-44
2022/08/20 10:32:49;;;;;;;10.67;8.57;;;21.20;80.90;22.30;100928.00;;;;5027369;28;20530;-44
2022/08/20 10:35:15;;;;;;;11.87;10.33;;;21.40;79.80;22.30;100920.00;;;;5027162;28;20630;-43
2022/08/20 10:37:41;;;;;;;12.87;10.50;;;21.50;78.90;22.40;100926.00;;;;5026714;28;20202;-44
2022/08/20 10:40:08;;;;;;;11.10;8.87;;;21.60;79.00;22.50;100928.00;;;;5027619;28;20167;-43
2022/08/20 10:42:33;;;;;;;10.70;8.23;;;21.60;79.00;22.50;100925.00;;;;5026988;28;20215;-43
2022/08/20 10:44:59;;;;;;;9.47;7.23;;;21.80;78.30;22.60;100921.00;;;;5026694;28;20182;-43
2022/08/20 10:47:29;;;;;;;11.53;9.03;;;22.00;77.20;22.70;100931.00;;;;5026798;28;20190;-42
2022/08/20 10:49:57;;;;;;;11.60;9.77;;;22.00;77.30;22.70;100929.00;;;;5026980;28;20183;-43